sensor_id;sensor_type;location;lat;lon;timestamp;P1;durP1;ratioP1;P2;durP2;ratioP2
74245;SDS011;62601;51.044;13.788;2022-08-01T00:01:40;5.63;;;4.03;;
74245;SDS011;62601;51.044;13.788;2022-08-01T00:04:00;3.77;;;3.47;;
74245;SDS011;62601;51.044;13.788;2022-08-01T00:06:22;3.90;;;3.57;;
74245;SDS011;62601;51.044;13.788;2022-08-01T00:08:42;4.00;;;3.60;;
74245;SDS011;62601;51.044;13.788;2022-08-01T00:11:02;4.33;;;3.50;;
74245;SDS011;62601;51.044;13.788;2022-08-01T00:13:23;3.83;;;3.43;;
74245;SDS011;62601;51.044;13.788;2022-08-01T00:15:45;4.20;;;3.87;;
74245;SDS011;62601;51.044;13.788;2022-08-01T00:18:06;4.17;;;3.87;;
74245;SDS011;62601;51.044;13.788;2022-08-01T00:20:28;3.43;;;3.23;;
74245;SDS011;62601;51.044;13.788;2022-08-01T00:22:49;3.80;;;3.50;;
74245;SDS011;62601;51.044;13.788;2022-08-01T00:25:11;4.10;;;3.70;;
74245;SDS011;62601;51.044;13.788;2022-08-01T00:27:32;3.80;;;3.50;;
74245;SDS011;62601;51.044;13.788;2022-08-01T00:29:53;4.00;;;3.70;;
74245;SDS011;62601;51.044;13.788;2022-08-01T00:32:13;3.87;;;3.27;;
74245;SDS011;62601;51.044;13.788;2022-08-01T00:34:33;3.87;;;3.57;;
74245;SDS011;62601;51.044;13.788;2022-08-01T00:36:53;3.80;;;3.57;;
74245;SDS011;62601;51.044;13.788;2022-08-01T00:39:15;4.17;;;3.77;;
74245;SDS011;62601;51.044;13.788;2022-08-01T00:41:35;4.13;;;3.83;;
74245;SDS011;62601;51.044;13.788;2022-08-01T00:43:55;3.87;;;3.47;;
74245;SDS011;62601;51.044;13.788;2022-08-01T00:46:16;4.30;;;3.90;;
74245;SDS011;62601;51.044;13.788;2022-08-01T00:48:37;4.10;;;3.70;;
74245;SDS011;62601;51.044;13.788;2022-08-01T00:50:57;3.97;;;3.67;;
74245;SDS011;62601;51.044;13.788;2022-08-01T00:53:19;4.17;;;3.80;;
74245;SDS011;62601;51.044;13.788;2022-08-01T00:55:40;5.00;;;4.13;;
74245;SDS011;62601;51.044;13.788;2022-08-01T00:58:02;4.10;;;3.57;;
74245;SDS011;62601;51.044;13.788;2022-08-01T01:00:26;3.87;;;3.57;;
74245;SDS011;62601;51.044;13.788;2022-08-01T01:02:46;6.10;;;3.90;;
74245;SDS011;62601;51.044;13.788;2022-08-01T01:05:08;4.30;;;3.90;;
74245;SDS011;62601;51.044;13.788;2022-08-01T01:07:36;4.00;;;3.70;;
74245;SDS011;62601;51.044;13.788;2022-08-01T01:10:07;7.93;;;4.80;;
74245;SDS011;62601;51.044;13.788;2022-08-01T01:15:25;4.20;;;3.90;;
74245;SDS011;62601;51.044;13.788;2022-08-01T01:17:47;4.17;;;3.80;;
74245;SDS011;62601;51.044;13.788;2022-08-01T01:20:11;4.53;;;4.00;;
74245;SDS011;62601;51.044;13.788;2022-08-01T01:27:57;4.60;;;4.20;;
74245;SDS011;62601;51.044;13.788;2022-08-01T01:30:21;4.10;;;3.70;;
74245;SDS011;62601;51.044;13.788;2022-08-01T01:32:43;5.40;;;4.57;;
74245;SDS011;62601;51.044;13.788;2022-08-01T01:35:06;4.60;;;4.20;;
74245;SDS011;62601;51.044;13.788;2022-08-01T01:37:37;4.67;;;4.27;;
74245;SDS011;62601;51.044;13.788;2022-08-01T01:39:58;4.00;;;3.70;;
74245;SDS011;62601;51.044;13.788;2022-08-01T01:42:22;4.33;;;3.83;;
74245;SDS011;62601;51.044;13.788;2022-08-01T01:44:44;4.23;;;3.83;;
74245;SDS011;62601;51.044;13.788;2022-08-01T01:47:05;4.63;;;4.33;;
74245;SDS011;62601;51.044;13.788;2022-08-01T01:49:27;4.57;;;4.27;;
74245;SDS011;62601;51.044;13.788;2022-08-01T01:51:48;4.33;;;3.97;;
74245;SDS011;62601;51.044;13.788;2022-08-01T01:54:11;4.70;;;4.30;;
74245;SDS011;62601;51.044;13.788;2022-08-01T01:56:33;5.60;;;3.70;;
74245;SDS011;62601;51.044;13.788;2022-08-01T01:58:59;4.43;;;4.13;;
74245;SDS011;62601;51.044;13.788;2022-08-01T02:01:22;4.50;;;4.00;;
74245;SDS011;62601;51.044;13.788;2022-08-01T02:03:44;4.40;;;4.00;;
74245;SDS011;62601;51.044;13.788;2022-08-01T02:06:06;4.90;;;4.50;;
74245;SDS011;62601;51.044;13.788;2022-08-01T02:08:27;5.57;;;4.30;;
74245;SDS011;62601;51.044;13.788;2022-08-01T02:10:48;4.90;;;4.50;;
74245;SDS011;62601;51.044;13.788;2022-08-01T02:13:10;4.80;;;4.40;;
74245;SDS011;62601;51.044;13.788;2022-08-01T02:15:30;4.83;;;4.40;;
74245;SDS011;62601;51.044;13.788;2022-08-01T02:17:52;4.60;;;4.20;;
74245;SDS011;62601;51.044;13.788;2022-08-01T02:20:17;5.17;;;4.17;;
74245;SDS011;62601;51.044;13.788;2022-08-01T02:22:43;5.13;;;4.73;;
74245;SDS011;62601;51.044;13.788;2022-08-01T02:25:23;4.80;;;4.50;;
74245;SDS011;62601;51.044;13.788;2022-08-01T02:28:04;4.30;;;4.00;;
74245;SDS011;62601;51.044;13.788;2022-08-01T02:30:29;5.33;;;4.50;;
74245;SDS011;62601;51.044;13.788;2022-08-01T02:32:54;4.40;;;4.00;;
74245;SDS011;62601;51.044;13.788;2022-08-01T02:35:28;4.93;;;4.63;;
74245;SDS011;62601;51.044;13.788;2022-08-01T02:37:50;4.17;;;3.87;;
74245;SDS011;62601;51.044;13.788;2022-08-01T02:40:12;4.80;;;3.80;;
74245;SDS011;62601;51.044;13.788;2022-08-01T02:42:33;4.90;;;4.50;;
74245;SDS011;62601;51.044;13.788;2022-08-01T02:44:54;4.40;;;4.10;;
74245;SDS011;62601;51.044;13.788;2022-08-01T02:47:15;5.00;;;4.50;;
74245;SDS011;62601;51.044;13.788;2022-08-01T02:49:43;4.30;;;4.00;;
74245;SDS011;62601;51.044;13.788;2022-08-01T02:52:07;4.37;;;3.97;;
74245;SDS011;62601;51.044;13.788;2022-08-01T02:54:37;4.70;;;4.40;;
74245;SDS011;62601;51.044;13.788;2022-08-01T02:56:58;7.40;;;4.80;;
74245;SDS011;62601;51.044;13.788;2022-08-01T02:59:22;4.50;;;4.20;;
74245;SDS011;62601;51.044;13.788;2022-08-01T03:01:47;5.00;;;4.60;;
74245;SDS011;62601;51.044;13.788;2022-08-01T03:04:09;9.53;;;7.90;;
74245;SDS011;62601;51.044;13.788;2022-08-01T03:06:34;5.00;;;4.60;;
74245;SDS011;62601;51.044;13.788;2022-08-01T03:08:56;4.70;;;4.40;;
74245;SDS011;62601;51.044;13.788;2022-08-01T03:11:18;4.50;;;4.10;;
74245;SDS011;62601;51.044;13.788;2022-08-01T03:13:40;5.80;;;4.60;;
74245;SDS011;62601;51.044;13.788;2022-08-01T03:16:05;6.00;;;4.50;;
74245;SDS011;62601;51.044;13.788;2022-08-01T03:18:31;4.67;;;4.27;;
74245;SDS011;62601;51.044;13.788;2022-08-01T03:21:02;4.67;;;4.10;;
74245;SDS011;62601;51.044;13.788;2022-08-01T03:23:34;7.17;;;5.07;;
74245;SDS011;62601;51.044;13.788;2022-08-01T03:25:56;4.67;;;4.37;;
74245;SDS011;62601;51.044;13.788;2022-08-01T03:28:18;5.30;;;4.80;;
74245;SDS011;62601;51.044;13.788;2022-08-01T03:30:40;8.13;;;5.00;;
74245;SDS011;62601;51.044;13.788;2022-08-01T03:33:02;4.83;;;4.43;;
74245;SDS011;62601;51.044;13.788;2022-08-01T03:35:26;5.50;;;4.50;;
74245;SDS011;62601;51.044;13.788;2022-08-01T03:37:52;4.63;;;4.33;;
74245;SDS011;62601;51.044;13.788;2022-08-01T03:40:20;5.03;;;4.63;;
74245;SDS011;62601;51.044;13.788;2022-08-01T03:42:46;4.90;;;4.50;;
74245;SDS011;62601;51.044;13.788;2022-08-01T03:45:10;8.77;;;5.10;;
74245;SDS011;62601;51.044;13.788;2022-08-01T03:47:33;4.87;;;4.47;;
74245;SDS011;62601;51.044;13.788;2022-08-01T03:50:05;5.50;;;4.53;;
74245;SDS011;62601;51.044;13.788;2022-08-01T03:52:27;4.73;;;4.33;;
74245;SDS011;62601;51.044;13.788;2022-08-01T03:54:51;4.60;;;4.30;;
74245;SDS011;62601;51.044;13.788;2022-08-01T03:57:13;5.40;;;5.00;;
74245;SDS011;62601;51.044;13.788;2022-08-01T03:59:35;5.83;;;4.80;;
74245;SDS011;62601;51.044;13.788;2022-08-01T04:01:57;7.20;;;5.40;;
74245;SDS011;62601;51.044;13.788;2022-08-01T04:04:21;5.97;;;5.47;;
74245;SDS011;62601;51.044;13.788;2022-08-01T04:06:43;5.37;;;4.97;;
74245;SDS011;62601;51.044;13.788;2022-08-01T04:09:03;7.40;;;5.03;;
74245;SDS011;62601;51.044;13.788;2022-08-01T04:11:25;5.57;;;5.17;;
74245;SDS011;62601;51.044;13.788;2022-08-01T04:13:53;5.87;;;5.23;;
74245;SDS011;62601;51.044;13.788;2022-08-01T04:16:15;4.60;;;4.30;;
74245;SDS011;62601;51.044;13.788;2022-08-01T04:18:36;5.13;;;4.63;;
74245;SDS011;62601;51.044;13.788;2022-08-01T04:20:58;5.97;;;5.07;;
74245;SDS011;62601;51.044;13.788;2022-08-01T04:23:20;5.53;;;5.10;;
74245;SDS011;62601;51.044;13.788;2022-08-01T04:25:43;4.87;;;4.37;;
74245;SDS011;62601;51.044;13.788;2022-08-01T04:28:06;4.50;;;4.20;;
74245;SDS011;62601;51.044;13.788;2022-08-01T04:30:29;5.13;;;4.73;;
74245;SDS011;62601;51.044;13.788;2022-08-01T04:33:01;4.20;;;3.90;;
74245;SDS011;62601;51.044;13.788;2022-08-01T04:35:36;7.70;;;4.03;;
74245;SDS011;62601;51.044;13.788;2022-08-01T04:38:02;5.40;;;4.43;;
74245;SDS011;62601;51.044;13.788;2022-08-01T04:40:24;4.83;;;4.10;;
74245;SDS011;62601;51.044;13.788;2022-08-01T04:42:46;4.33;;;4.03;;
74245;SDS011;62601;51.044;13.788;2022-08-01T04:45:07;4.30;;;4.00;;
74245;SDS011;62601;51.044;13.788;2022-08-01T04:47:32;4.73;;;4.33;;
74245;SDS011;62601;51.044;13.788;2022-08-01T04:49:54;4.67;;;4.37;;
74245;SDS011;62601;51.044;13.788;2022-08-01T04:52:15;4.70;;;4.30;;
74245;SDS011;62601;51.044;13.788;2022-08-01T04:54:40;4.57;;;4.13;;
74245;SDS011;62601;51.044;13.788;2022-08-01T04:57:01;6.10;;;4.80;;
74245;SDS011;62601;51.044;13.788;2022-08-01T04:59:22;4.77;;;4.37;;
74245;SDS011;62601;51.044;13.788;2022-08-01T05:01:47;4.13;;;3.87;;
74245;SDS011;62601;51.044;13.788;2022-08-01T05:04:09;5.97;;;4.53;;
74245;SDS011;62601;51.044;13.788;2022-08-01T05:06:30;6.13;;;4.40;;
74245;SDS011;62601;51.044;13.788;2022-08-01T05:08:52;4.90;;;4.50;;
74245;SDS011;62601;51.044;13.788;2022-08-01T05:11:13;4.70;;;4.30;;
74245;SDS011;62601;51.044;13.788;2022-08-01T05:13:34;4.83;;;4.43;;
74245;SDS011;62601;51.044;13.788;2022-08-01T05:15:56;5.53;;;4.30;;
74245;SDS011;62601;51.044;13.788;2022-08-01T05:18:17;6.70;;;4.30;;
74245;SDS011;62601;51.044;13.788;2022-08-01T05:20:39;6.50;;;4.63;;
74245;SDS011;62601;51.044;13.788;2022-08-01T05:23:01;5.00;;;4.40;;
74245;SDS011;62601;51.044;13.788;2022-08-01T05:25:22;4.70;;;4.30;;
74245;SDS011;62601;51.044;13.788;2022-08-01T05:27:44;6.00;;;4.33;;
74245;SDS011;62601;51.044;13.788;2022-08-01T05:30:07;5.00;;;4.53;;
74245;SDS011;62601;51.044;13.788;2022-08-01T05:32:29;5.27;;;4.63;;
74245;SDS011;62601;51.044;13.788;2022-08-01T05:34:50;7.67;;;5.30;;
74245;SDS011;62601;51.044;13.788;2022-08-01T05:37:11;4.70;;;4.10;;
74245;SDS011;62601;51.044;13.788;2022-08-01T05:39:32;4.40;;;4.00;;
74245;SDS011;62601;51.044;13.788;2022-08-01T05:41:54;4.60;;;4.30;;
74245;SDS011;62601;51.044;13.788;2022-08-01T05:44:15;4.67;;;4.27;;
74245;SDS011;62601;51.044;13.788;2022-08-01T05:46:36;4.23;;;3.80;;
74245;SDS011;62601;51.044;13.788;2022-08-01T05:49:00;4.60;;;3.80;;
74245;SDS011;62601;51.044;13.788;2022-08-01T05:51:22;4.43;;;4.10;;
74245;SDS011;62601;51.044;13.788;2022-08-01T05:53:43;4.67;;;4.27;;
74245;SDS011;62601;51.044;13.788;2022-08-01T05:56:05;4.90;;;4.40;;
74245;SDS011;62601;51.044;13.788;2022-08-01T05:58:26;3.50;;;3.20;;
74245;SDS011;62601;51.044;13.788;2022-08-01T06:00:48;5.03;;;3.70;;
74245;SDS011;62601;51.044;13.788;2022-08-01T06:03:09;4.30;;;3.90;;
74245;SDS011;62601;51.044;13.788;2022-08-01T06:05:31;4.33;;;3.93;;
74245;SDS011;62601;51.044;13.788;2022-08-01T06:07:52;4.57;;;4.20;;
74245;SDS011;62601;51.044;13.788;2022-08-01T06:10:16;4.57;;;3.73;;
74245;SDS011;62601;51.044;13.788;2022-08-01T06:12:37;3.87;;;3.57;;
74245;SDS011;62601;51.044;13.788;2022-08-01T06:14:59;5.33;;;3.50;;
74245;SDS011;62601;51.044;13.788;2022-08-01T06:17:20;4.00;;;3.70;;
74245;SDS011;62601;51.044;13.788;2022-08-01T06:19:42;3.30;;;3.10;;
74245;SDS011;62601;51.044;13.788;2022-08-01T06:22:03;4.13;;;3.83;;
74245;SDS011;62601;51.044;13.788;2022-08-01T06:24:24;3.90;;;3.60;;
74245;SDS011;62601;51.044;13.788;2022-08-01T06:26:49;4.70;;;4.30;;
74245;SDS011;62601;51.044;13.788;2022-08-01T06:29:10;6.07;;;5.40;;
74245;SDS011;62601;51.044;13.788;2022-08-01T06:31:30;8.80;;;4.50;;
74245;SDS011;62601;51.044;13.788;2022-08-01T06:33:52;6.00;;;3.80;;
74245;SDS011;62601;51.044;13.788;2022-08-01T06:36:13;5.40;;;3.27;;
74245;SDS011;62601;51.044;13.788;2022-08-01T06:38:35;5.67;;;3.30;;
74245;SDS011;62601;51.044;13.788;2022-08-01T06:40:58;9.83;;;3.87;;
74245;SDS011;62601;51.044;13.788;2022-08-01T06:43:19;4.73;;;3.50;;
74245;SDS011;62601;51.044;13.788;2022-08-01T06:45:42;4.07;;;3.37;;
74245;SDS011;62601;51.044;13.788;2022-08-01T06:48:03;4.43;;;4.03;;
74245;SDS011;62601;51.044;13.788;2022-08-01T06:50:25;4.67;;;4.27;;
74245;SDS011;62601;51.044;13.788;2022-08-01T06:52:45;4.93;;;4.63;;
74245;SDS011;62601;51.044;13.788;2022-08-01T06:55:06;4.93;;;4.60;;
74245;SDS011;62601;51.044;13.788;2022-08-01T06:57:28;4.43;;;4.03;;
74245;SDS011;62601;51.044;13.788;2022-08-01T06:59:49;5.47;;;4.97;;
74245;SDS011;62601;51.044;13.788;2022-08-01T07:02:10;5.70;;;5.20;;
74245;SDS011;62601;51.044;13.788;2022-08-01T07:04:32;5.83;;;5.33;;
74245;SDS011;62601;51.044;13.788;2022-08-01T07:06:53;5.47;;;4.97;;
74245;SDS011;62601;51.044;13.788;2022-08-01T07:09:18;11.33;;;4.87;;
74245;SDS011;62601;51.044;13.788;2022-08-01T07:11:39;6.43;;;5.93;;
74245;SDS011;62601;51.044;13.788;2022-08-01T07:14:00;5.47;;;4.97;;
74245;SDS011;62601;51.044;13.788;2022-08-01T07:16:22;5.27;;;4.77;;
74245;SDS011;62601;51.044;13.788;2022-08-01T07:18:43;6.00;;;5.40;;
74245;SDS011;62601;51.044;13.788;2022-08-01T07:21:05;5.17;;;4.77;;
74245;SDS011;62601;51.044;13.788;2022-08-01T07:23:26;5.70;;;5.20;;
74245;SDS011;62601;51.044;13.788;2022-08-01T07:25:47;5.00;;;4.63;;
74245;SDS011;62601;51.044;13.788;2022-08-01T07:28:07;5.17;;;4.73;;
74245;SDS011;62601;51.044;13.788;2022-08-01T07:30:27;5.57;;;5.07;;
74245;SDS011;62601;51.044;13.788;2022-08-01T07:32:52;5.73;;;5.33;;
74245;SDS011;62601;51.044;13.788;2022-08-01T07:35:13;5.50;;;5.00;;
74245;SDS011;62601;51.044;13.788;2022-08-01T07:37:33;5.13;;;4.73;;
74245;SDS011;62601;51.044;13.788;2022-08-01T07:39:56;6.67;;;6.00;;
74245;SDS011;62601;51.044;13.788;2022-08-01T07:42:17;6.10;;;5.60;;
74245;SDS011;62601;51.044;13.788;2022-08-01T07:44:38;5.97;;;5.57;;
74245;SDS011;62601;51.044;13.788;2022-08-01T07:46:59;6.00;;;5.23;;
74245;SDS011;62601;51.044;13.788;2022-08-01T07:49:21;5.83;;;5.33;;
74245;SDS011;62601;51.044;13.788;2022-08-01T07:51:41;7.73;;;5.40;;
74245;SDS011;62601;51.044;13.788;2022-08-01T07:54:02;5.73;;;5.20;;
74245;SDS011;62601;51.044;13.788;2022-08-01T07:56:24;6.57;;;6.07;;
74245;SDS011;62601;51.044;13.788;2022-08-01T07:58:45;6.17;;;5.67;;
74245;SDS011;62601;51.044;13.788;2022-08-01T08:01:07;5.83;;;5.03;;
74245;SDS011;62601;51.044;13.788;2022-08-01T08:03:31;4.47;;;4.17;;
74245;SDS011;62601;51.044;13.788;2022-08-01T08:05:51;8.00;;;4.50;;
74245;SDS011;62601;51.044;13.788;2022-08-01T08:08:13;5.70;;;5.20;;
74245;SDS011;62601;51.044;13.788;2022-08-01T08:10:34;5.13;;;4.63;;
74245;SDS011;62601;51.044;13.788;2022-08-01T08:12:54;5.50;;;5.00;;
74245;SDS011;62601;51.044;13.788;2022-08-01T08:15:15;5.03;;;4.50;;
74245;SDS011;62601;51.044;13.788;2022-08-01T08:17:37;9.77;;;4.40;;
74245;SDS011;62601;51.044;13.788;2022-08-01T08:19:58;4.17;;;3.80;;
74245;SDS011;62601;51.044;13.788;2022-08-01T08:22:19;6.20;;;4.30;;
74245;SDS011;62601;51.044;13.788;2022-08-01T08:24:39;4.57;;;3.60;;
74245;SDS011;62601;51.044;13.788;2022-08-01T08:27:01;3.50;;;3.30;;
74245;SDS011;62601;51.044;13.788;2022-08-01T08:29:26;4.43;;;4.13;;
74245;SDS011;62601;51.044;13.788;2022-08-01T08:31:46;4.53;;;3.60;;
74245;SDS011;62601;51.044;13.788;2022-08-01T08:34:08;4.13;;;3.33;;
74245;SDS011;62601;51.044;13.788;2022-08-01T08:36:29;3.97;;;3.60;;
74245;SDS011;62601;51.044;13.788;2022-08-01T08:38:50;5.57;;;3.77;;
74245;SDS011;62601;51.044;13.788;2022-08-01T08:41:11;5.27;;;3.50;;
74245;SDS011;62601;51.044;13.788;2022-08-01T08:43:33;3.30;;;3.00;;
74245;SDS011;62601;51.044;13.788;2022-08-01T08:45:55;4.10;;;3.77;;
74245;SDS011;62601;51.044;13.788;2022-08-01T08:48:17;3.63;;;2.97;;
74245;SDS011;62601;51.044;13.788;2022-08-01T08:50:40;3.70;;;3.40;;
74245;SDS011;62601;51.044;13.788;2022-08-01T08:53:02;4.80;;;3.00;;
74245;SDS011;62601;51.044;13.788;2022-08-01T08:55:22;2.93;;;2.57;;
74245;SDS011;62601;51.044;13.788;2022-08-01T08:57:44;2.90;;;2.70;;
74245;SDS011;62601;51.044;13.788;2022-08-01T09:00:06;2.87;;;2.67;;
74245;SDS011;62601;51.044;13.788;2022-08-01T09:02:27;5.70;;;3.27;;
74245;SDS011;62601;51.044;13.788;2022-08-01T09:04:49;3.60;;;3.30;;
74245;SDS011;62601;51.044;13.788;2022-08-01T09:07:11;3.77;;;2.47;;
74245;SDS011;62601;51.044;13.788;2022-08-01T09:09:32;3.33;;;3.13;;
74245;SDS011;62601;51.044;13.788;2022-08-01T09:11:54;2.93;;;2.73;;
74245;SDS011;62601;51.044;13.788;2022-08-01T09:14:18;4.43;;;3.13;;
74245;SDS011;62601;51.044;13.788;2022-08-01T09:16:43;2.70;;;2.50;;
74245;SDS011;62601;51.044;13.788;2022-08-01T09:19:17;2.90;;;2.40;;
74245;SDS011;62601;51.044;13.788;2022-08-01T09:21:39;3.30;;;2.50;;
74245;SDS011;62601;51.044;13.788;2022-08-01T09:24:01;3.20;;;2.70;;
74245;SDS011;62601;51.044;13.788;2022-08-01T09:26:32;2.60;;;2.40;;
74245;SDS011;62601;51.044;13.788;2022-08-01T09:28:54;3.17;;;2.70;;
74245;SDS011;62601;51.044;13.788;2022-08-01T09:31:16;3.80;;;3.50;;
74245;SDS011;62601;51.044;13.788;2022-08-01T09:33:51;3.37;;;3.17;;
74245;SDS011;62601;51.044;13.788;2022-08-01T09:36:13;3.13;;;2.93;;
74245;SDS011;62601;51.044;13.788;2022-08-01T09:38:35;4.07;;;3.77;;
74245;SDS011;62601;51.044;13.788;2022-08-01T09:41:00;4.90;;;4.50;;
74245;SDS011;62601;51.044;13.788;2022-08-01T09:43:21;6.40;;;5.80;;
74245;SDS011;62601;51.044;13.788;2022-08-01T09:45:43;4.50;;;4.20;;
74245;SDS011;62601;51.044;13.788;2022-08-01T09:48:08;3.47;;;3.27;;
74245;SDS011;62601;51.044;13.788;2022-08-01T09:50:38;3.50;;;3.30;;
74245;SDS011;62601;51.044;13.788;2022-08-01T09:52:59;9.20;;;3.63;;
74245;SDS011;62601;51.044;13.788;2022-08-01T09:55:21;3.40;;;3.20;;
74245;SDS011;62601;51.044;13.788;2022-08-01T09:57:54;5.10;;;3.60;;
74245;SDS011;62601;51.044;13.788;2022-08-01T10:00:17;2.47;;;2.37;;
74245;SDS011;62601;51.044;13.788;2022-08-01T10:02:38;2.83;;;2.70;;
74245;SDS011;62601;51.044;13.788;2022-08-01T10:05:01;5.60;;;2.77;;
74245;SDS011;62601;51.044;13.788;2022-08-01T10:07:21;3.33;;;2.87;;
74245;SDS011;62601;51.044;13.788;2022-08-01T10:09:42;2.40;;;2.30;;
74245;SDS011;62601;51.044;13.788;2022-08-01T10:12:04;2.57;;;2.47;;
74245;SDS011;62601;51.044;13.788;2022-08-01T10:14:24;2.87;;;2.73;;
74245;SDS011;62601;51.044;13.788;2022-08-01T10:16:46;2.30;;;2.20;;
74245;SDS011;62601;51.044;13.788;2022-08-01T10:19:09;3.53;;;3.30;;
74245;SDS011;62601;51.044;13.788;2022-08-01T10:21:30;2.80;;;2.40;;
74245;SDS011;62601;51.044;13.788;2022-08-01T10:23:51;2.30;;;2.20;;
74245;SDS011;62601;51.044;13.788;2022-08-01T10:26:13;5.33;;;2.80;;
74245;SDS011;62601;51.044;13.788;2022-08-01T10:28:35;2.63;;;2.33;;
74245;SDS011;62601;51.044;13.788;2022-08-01T10:30:57;2.00;;;1.90;;
74245;SDS011;62601;51.044;13.788;2022-08-01T10:33:24;2.00;;;1.90;;
74245;SDS011;62601;51.044;13.788;2022-08-01T10:35:49;2.13;;;2.03;;
74245;SDS011;62601;51.044;13.788;2022-08-01T10:38:14;2.20;;;2.00;;
74245;SDS011;62601;51.044;13.788;2022-08-01T10:40:36;2.77;;;2.53;;
74245;SDS011;62601;51.044;13.788;2022-08-01T10:42:58;1.97;;;1.87;;
74245;SDS011;62601;51.044;13.788;2022-08-01T10:45:19;2.30;;;2.20;;
74245;SDS011;62601;51.044;13.788;2022-08-01T10:50:42;1.90;;;1.80;;
74245;SDS011;62601;51.044;13.788;2022-08-01T10:53:23;1.93;;;1.83;;
74245;SDS011;62601;51.044;13.788;2022-08-01T10:58:27;2.00;;;1.90;;
74245;SDS011;62601;51.044;13.788;2022-08-01T11:01:13;1.80;;;1.70;;
74245;SDS011;62601;51.044;13.788;2022-08-01T11:03:36;1.37;;;1.30;;
74245;SDS011;62601;51.044;13.788;2022-08-01T11:05:57;3.07;;;1.50;;
74245;SDS011;62601;51.044;13.788;2022-08-01T11:08:22;1.47;;;1.30;;
74245;SDS011;62601;51.044;13.788;2022-08-01T11:10:42;3.23;;;1.30;;
74245;SDS011;62601;51.044;13.788;2022-08-01T11:13:05;1.50;;;1.40;;
74245;SDS011;62601;51.044;13.788;2022-08-01T11:15:27;1.37;;;1.27;;
74245;SDS011;62601;51.044;13.788;2022-08-01T11:17:48;1.33;;;1.10;;
74245;SDS011;62601;51.044;13.788;2022-08-01T11:20:18;1.30;;;1.20;;
74245;SDS011;62601;51.044;13.788;2022-08-01T11:23:26;1.27;;;1.17;;
74245;SDS011;62601;51.044;13.788;2022-08-01T11:25:23;0.93;;;0.90;;
74245;SDS011;62601;51.044;13.788;2022-08-01T11:27:44;0.90;;;0.90;;
74245;SDS011;62601;51.044;13.788;2022-08-01T11:32:32;1.23;;;0.90;;
74245;SDS011;62601;51.044;13.788;2022-08-01T11:34:53;1.17;;;1.00;;
74245;SDS011;62601;51.044;13.788;2022-08-01T11:37:28;1.63;;;0.87;;
74245;SDS011;62601;51.044;13.788;2022-08-01T11:42:28;1.30;;;1.20;;
74245;SDS011;62601;51.044;13.788;2022-08-01T11:44:50;1.50;;;1.23;;
74245;SDS011;62601;51.044;13.788;2022-08-01T11:47:10;1.53;;;0.97;;
74245;SDS011;62601;51.044;13.788;2022-08-01T11:49:47;1.37;;;1.27;;
74245;SDS011;62601;51.044;13.788;2022-08-01T11:54:50;1.40;;;1.20;;
74245;SDS011;62601;51.044;13.788;2022-08-01T11:57:13;1.20;;;1.10;;
74245;SDS011;62601;51.044;13.788;2022-08-01T11:59:39;3.40;;;1.43;;
74245;SDS011;62601;51.044;13.788;2022-08-01T12:02:04;3.63;;;1.80;;
74245;SDS011;62601;51.044;13.788;2022-08-01T12:04:50;4.00;;;1.60;;
74245;SDS011;62601;51.044;13.788;2022-08-01T12:07:15;5.87;;;1.60;;
74245;SDS011;62601;51.044;13.788;2022-08-01T12:09:35;1.53;;;1.40;;
74245;SDS011;62601;51.044;13.788;2022-08-01T12:11:55;1.70;;;1.30;;
74245;SDS011;62601;51.044;13.788;2022-08-01T12:14:20;1.47;;;1.37;;
74245;SDS011;62601;51.044;13.788;2022-08-01T12:16:40;3.03;;;1.47;;
74245;SDS011;62601;51.044;13.788;2022-08-01T12:19:01;1.40;;;1.00;;
74245;SDS011;62601;51.044;13.788;2022-08-01T12:21:23;4.30;;;1.33;;
74245;SDS011;62601;51.044;13.788;2022-08-01T12:23:43;1.50;;;1.40;;
74245;SDS011;62601;51.044;13.788;2022-08-01T12:26:03;1.50;;;1.40;;
74245;SDS011;62601;51.044;13.788;2022-08-01T12:28:23;1.30;;;1.20;;
74245;SDS011;62601;51.044;13.788;2022-08-01T12:30:43;2.80;;;1.40;;
74245;SDS011;62601;51.044;13.788;2022-08-01T12:33:07;1.60;;;1.23;;
74245;SDS011;62601;51.044;13.788;2022-08-01T12:35:29;3.50;;;1.30;;
74245;SDS011;62601;51.044;13.788;2022-08-01T12:37:55;1.90;;;1.20;;
74245;SDS011;62601;51.044;13.788;2022-08-01T12:40:25;1.07;;;1.03;;
74245;SDS011;62601;51.044;13.788;2022-08-01T12:42:50;2.57;;;2.37;;
74245;SDS011;62601;51.044;13.788;2022-08-01T12:45:13;1.77;;;1.67;;
74245;SDS011;62601;51.044;13.788;2022-08-01T12:47:35;4.30;;;3.50;;
74245;SDS011;62601;51.044;13.788;2022-08-01T12:49:55;2.97;;;1.17;;
74245;SDS011;62601;51.044;13.788;2022-08-01T12:52:15;1.40;;;1.30;;
74245;SDS011;62601;51.044;13.788;2022-08-01T12:54:59;1.17;;;1.00;;
74245;SDS011;62601;51.044;13.788;2022-08-01T12:57:23;2.13;;;1.30;;
74245;SDS011;62601;51.044;13.788;2022-08-01T12:59:45;2.43;;;1.00;;
74245;SDS011;62601;51.044;13.788;2022-08-01T13:02:09;1.30;;;1.20;;
74245;SDS011;62601;51.044;13.788;2022-08-01T13:04:30;1.57;;;1.20;;
74245;SDS011;62601;51.044;13.788;2022-08-01T13:06:52;2.77;;;1.20;;
74245;SDS011;62601;51.044;13.788;2022-08-01T13:09:14;1.47;;;1.37;;
74245;SDS011;62601;51.044;13.788;2022-08-01T13:11:34;2.13;;;1.27;;
74245;SDS011;62601;51.044;13.788;2022-08-01T13:13:55;1.13;;;1.13;;
74245;SDS011;62601;51.044;13.788;2022-08-01T13:16:18;2.10;;;1.33;;
74245;SDS011;62601;51.044;13.788;2022-08-01T13:18:49;2.20;;;1.40;;
74245;SDS011;62601;51.044;13.788;2022-08-01T13:21:11;2.30;;;1.33;;
74245;SDS011;62601;51.044;13.788;2022-08-01T13:23:33;1.23;;;1.13;;
74245;SDS011;62601;51.044;13.788;2022-08-01T13:25:53;1.00;;;1.00;;
74245;SDS011;62601;51.044;13.788;2022-08-01T13:28:16;1.53;;;1.10;;
74245;SDS011;62601;51.044;13.788;2022-08-01T13:30:36;1.20;;;1.00;;
74245;SDS011;62601;51.044;13.788;2022-08-01T13:32:57;1.70;;;1.60;;
74245;SDS011;62601;51.044;13.788;2022-08-01T13:35:19;1.00;;;1.00;;
74245;SDS011;62601;51.044;13.788;2022-08-01T13:37:41;1.20;;;1.00;;
74245;SDS011;62601;51.044;13.788;2022-08-01T13:40:01;6.23;;;1.97;;
74245;SDS011;62601;51.044;13.788;2022-08-01T13:42:21;5.13;;;1.10;;
74245;SDS011;62601;51.044;13.788;2022-08-01T13:44:43;1.43;;;1.00;;
74245;SDS011;62601;51.044;13.788;2022-08-01T13:47:04;0.80;;;0.80;;
74245;SDS011;62601;51.044;13.788;2022-08-01T13:49:26;3.60;;;1.00;;
74245;SDS011;62601;51.044;13.788;2022-08-01T13:51:46;5.17;;;1.43;;
74245;SDS011;62601;51.044;13.788;2022-08-01T13:54:06;2.23;;;1.17;;
74245;SDS011;62601;51.044;13.788;2022-08-01T13:56:26;0.90;;;0.90;;
74245;SDS011;62601;51.044;13.788;2022-08-01T13:58:47;0.80;;;0.80;;
74245;SDS011;62601;51.044;13.788;2022-08-01T14:01:09;1.37;;;0.80;;
74245;SDS011;62601;51.044;13.788;2022-08-01T14:03:30;1.40;;;0.80;;
74245;SDS011;62601;51.044;13.788;2022-08-01T14:05:52;2.73;;;1.00;;
74245;SDS011;62601;51.044;13.788;2022-08-01T14:08:12;0.80;;;0.80;;
74245;SDS011;62601;51.044;13.788;2022-08-01T14:10:34;0.80;;;0.80;;
74245;SDS011;62601;51.044;13.788;2022-08-01T14:12:57;2.37;;;1.60;;
74245;SDS011;62601;51.044;13.788;2022-08-01T14:15:18;1.80;;;0.90;;
74245;SDS011;62601;51.044;13.788;2022-08-01T14:17:40;1.77;;;0.97;;
74245;SDS011;62601;51.044;13.788;2022-08-01T14:20:00;1.10;;;1.10;;
74245;SDS011;62601;51.044;13.788;2022-08-01T14:22:21;1.30;;;1.20;;
74245;SDS011;62601;51.044;13.788;2022-08-01T14:24:42;1.33;;;1.30;;
74245;SDS011;62601;51.044;13.788;2022-08-01T14:27:02;2.47;;;1.13;;
74245;SDS011;62601;51.044;13.788;2022-08-01T14:29:22;1.50;;;1.40;;